createdAt,value
2023-04-12T00:02:06.852Z,6.20
2023-04-12T00:10:13.464Z,7.60
2023-04-12T00:18:22.040Z,8.27
2023-04-12T00:26:28.227Z,7.78
2023-04-12T00:34:36.607Z,7.70
2023-04-12T00:42:42.162Z,8.27
2023-04-12T00:50:50.326Z,17.92
2023-04-12T00:58:55.820Z,8.23
2023-04-12T01:07:18.495Z,7.82
2023-04-12T01:15:26.646Z,7.63
2023-04-12T01:24:00.670Z,6.90
2023-04-12T01:40:16.423Z,7.93
2023-04-12T01:48:24.542Z,8.63
2023-04-12T01:56:34.840Z,8.18
2023-04-12T02:04:44.404Z,8.38
2023-04-12T02:12:49.901Z,8.43
2023-04-12T02:20:58.021Z,7.15
2023-04-12T02:29:03.422Z,8.02
2023-04-12T02:37:13.986Z,7.30
2023-04-12T02:45:19.514Z,6.60
2023-04-12T02:53:27.727Z,5.00
2023-04-12T03:01:51.092Z,5.25
2023-04-12T03:10:08.518Z,4.07
2023-04-12T03:18:21.154Z,4.85
2023-04-12T03:26:31.750Z,4.57
2023-04-12T03:34:41.073Z,4.97
2023-04-12T03:42:54.139Z,5.25
2023-04-12T03:51:00.226Z,5.53
2023-04-12T03:59:12.565Z,6.07
2023-04-12T04:07:18.846Z,6.60
2023-04-12T04:15:28.933Z,6.10
2023-04-12T04:23:38.929Z,7.05
2023-04-12T04:31:48.853Z,6.03
2023-04-12T04:39:55.920Z,5.00
2023-04-12T04:48:04.865Z,4.90
2023-04-12T04:56:11.754Z,4.90
2023-04-12T05:04:20.063Z,4.45
2023-04-12T05:12:26.040Z,4.88
2023-04-12T05:20:37.280Z,4.22
2023-04-12T05:28:43.059Z,4.40
2023-04-12T05:36:52.935Z,5.38
2023-04-12T05:44:59.552Z,4.50
2023-04-12T05:53:08.538Z,5.90
2023-04-12T06:01:16.928Z,6.70
2023-04-12T06:09:25.109Z,6.28
2023-04-12T06:17:31.331Z,5.60
2023-04-12T06:25:39.506Z,6.10
2023-04-12T06:33:45.619Z,6.75
2023-04-12T06:41:53.715Z,6.20
2023-04-12T06:49:59.489Z,6.93
2023-04-12T06:58:07.641Z,5.30
2023-04-12T07:06:24.556Z,4.25
2023-04-12T07:14:33.949Z,3.55
2023-04-12T07:22:39.410Z,5.32
2023-04-12T07:30:47.474Z,5.80
2023-04-12T07:38:56.003Z,5.60
2023-04-12T07:47:04.601Z,4.10
2023-04-12T07:55:10.612Z,4.80
2023-04-12T08:03:20.129Z,5.47
2023-04-12T08:11:25.789Z,4.90
2023-04-12T08:19:33.885Z,5.82
2023-04-12T08:27:39.639Z,5.30
2023-04-12T08:35:57.394Z,4.80
2023-04-12T08:44:03.703Z,5.00
2023-04-12T08:52:13.548Z,4.68
2023-04-12T09:00:23.572Z,5.20
2023-04-12T09:08:31.804Z,4.78
2023-04-12T09:16:38.716Z,3.95
2023-04-12T09:24:54.675Z,4.10
2023-04-12T09:33:13.423Z,3.88
2023-04-12T09:41:26.976Z,3.42
2023-04-12T09:49:42.790Z,3.00
2023-04-12T09:57:53.963Z,3.80
2023-04-12T10:06:00.134Z,2.92
2023-04-12T10:14:09.847Z,2.85
2023-04-12T10:22:17.762Z,3.00
2023-04-12T10:30:31.507Z,3.55
2023-04-12T10:46:59.244Z,2.95
2023-04-12T10:55:33.212Z,3.20
2023-04-12T11:12:16.654Z,2.97
2023-04-12T11:20:25.296Z,2.88
2023-04-12T11:28:34.670Z,2.80
2023-04-12T11:36:45.502Z,3.38
2023-04-12T11:44:58.973Z,3.53
2023-04-12T11:53:18.261Z,3.30
2023-04-12T12:01:25.848Z,4.30
2023-04-12T12:09:34.679Z,4.28
2023-04-12T12:17:43.385Z,4.40
2023-04-12T12:26:00.207Z,3.42
2023-04-12T12:34:19.979Z,3.83
2023-04-12T12:42:28.193Z,3.67
2023-04-12T12:50:35.694Z,3.75
2023-04-12T12:58:44.377Z,3.20
2023-04-12T13:06:49.811Z,3.95
2023-04-12T13:15:06.902Z,3.72
2023-04-12T13:23:26.241Z,3.20
2023-04-12T13:31:34.474Z,3.58
2023-04-12T13:39:42.996Z,4.60
2023-04-12T13:47:56.162Z,4.63
2023-04-12T13:56:01.779Z,3.65
2023-04-12T14:04:12.325Z,3.78
2023-04-12T14:12:17.988Z,3.80
2023-04-12T14:20:26.243Z,3.90
2023-04-12T14:28:35.110Z,4.53
2023-04-12T14:36:43.380Z,4.03
2023-04-12T14:44:48.933Z,4.47
2023-04-12T14:52:57.245Z,4.30
2023-04-12T15:01:05.788Z,4.30
2023-04-12T15:09:18.107Z,4.38
2023-04-12T15:17:24.576Z,4.13
2023-04-12T15:25:33.623Z,4.32
2023-04-12T15:33:39.165Z,4.10
2023-04-12T15:41:49.977Z,5.05
2023-04-12T15:49:55.563Z,4.43
2023-04-12T15:58:03.701Z,3.75
2023-04-12T16:06:09.733Z,3.45
2023-04-12T16:14:18.315Z,4.00
2023-04-12T16:22:24.483Z,4.30
2023-04-12T16:30:35.653Z,4.10
2023-04-12T16:38:41.445Z,4.00
2023-04-12T16:46:51.260Z,4.53
2023-04-12T16:55:04.590Z,4.50
2023-04-12T17:03:14.430Z,4.05
2023-04-12T17:11:23.147Z,3.72
2023-04-12T17:19:31.388Z,4.70
2023-04-12T17:27:37.627Z,4.38
2023-04-12T17:35:45.656Z,3.55
2023-04-12T17:43:52.568Z,5.15
2023-04-12T18:01:06.920Z,4.75
2023-04-12T18:09:13.925Z,5.00
2023-04-12T18:17:26.639Z,5.28
2023-04-12T18:25:35.394Z,6.83
2023-04-12T18:33:45.447Z,6.30
2023-04-12T18:41:51.390Z,5.05
2023-04-12T18:50:01.046Z,5.00
2023-04-12T18:58:07.244Z,5.50
2023-04-12T19:06:16.022Z,5.47
2023-04-12T19:14:21.506Z,5.47
2023-04-12T19:22:29.757Z,4.40
2023-04-12T19:30:35.918Z,4.25
2023-04-12T19:38:44.477Z,5.03
2023-04-12T19:46:51.958Z,7.68
2023-04-12T19:55:02.156Z,4.72
2023-04-12T20:03:14.516Z,5.22
2023-04-12T20:11:22.689Z,6.00
2023-04-12T20:19:31.496Z,6.03
2023-04-12T20:27:39.673Z,7.35
2023-04-12T20:35:45.355Z,5.38
2023-04-12T20:43:53.373Z,5.18
2023-04-12T20:51:59.541Z,6.35
2023-04-12T21:00:17.561Z,5.50
2023-04-12T21:08:23.048Z,5.40
2023-04-12T21:16:31.300Z,5.00
2023-04-12T21:24:38.586Z,5.00
2023-04-12T21:32:46.702Z,4.22
2023-04-12T21:40:52.269Z,5.97
2023-04-12T21:49:00.628Z,6.00
2023-04-12T21:57:06.521Z,6.35
2023-04-12T22:05:14.832Z,9.70
2023-04-12T22:13:23.853Z,11.00
2023-04-12T22:21:33.679Z,12.15
2023-04-12T22:29:39.138Z,12.68
2023-04-12T22:37:47.233Z,14.00
2023-04-12T22:45:54.413Z,14.85
2023-04-12T22:54:02.888Z,15.48
2023-04-12T23:02:08.403Z,16.63
2023-04-12T23:10:16.750Z,13.65
2023-04-12T23:18:22.163Z,10.93
2023-04-12T23:26:30.736Z,10.68
2023-04-12T23:34:38.817Z,10.35
2023-04-12T23:42:47.209Z,10.57
2023-04-12T23:50:53.572Z,11.70
2023-04-12T23:59:01.924Z,12.20
